Time;durP1;ratioP1;P1;durP2;ratioP2;P2;SDS_P1;SDS_P2;PMS_P1;PMS_P2;Temp;Humidity;BMP_temperature;BMP_pressure;BME280_temperature;BME280_humidity;BME280_pressure;Samples;Min_cycle;Max_cycle;Signal;HPM_P1;HPM_P2
2024/02/11 00:00:27;;;;;;;18.60;13.80;;;;;;;20.80;35.23;99814.56;102682;1291;72674;-81
2024/02/11 00:02:53;;;;;;;19.30;13.60;;;;;;;20.79;35.39;99815.84;102670;1291;74656;-81
2024/02/11 00:05:19;;;;;;;17.40;14.00;;;;;;;20.79;35.20;99818.72;102775;1294;62375;-81
2024/02/11 00:07:45;;;;;;;20.10;13.80;;;;;;;20.80;35.18;99820.85;102638;1291;61299;-80
2024/02/11 00:10:10;;;;;;;19.30;14.70;;;;;;;20.79;35.27;99825.71;102772;1289;61411;-80
2024/02/11 00:12:38;;;;;;;21.40;14.60;;;;;;;20.79;35.15;99824.84;102764;1291;61436;-80
2024/02/11 00:15:05;;;;;;;22.10;13.80;;;;;;;20.79;35.29;99826.79;102731;1291;61890;-80
2024/02/11 00:17:35;;;;;;;20.90;13.80;;;;;;;20.79;35.31;99838.45;102646;1291;62426;-78
2024/02/11 00:20:02;;;;;;;17.60;12.70;;;;;;;20.79;35.24;99845.58;102792;1290;62501;-79
2024/02/11 00:22:28;;;;;;;17.80;12.80;;;;;;;20.79;35.13;99858.27;102723;1290;74459;-79
2024/02/11 00:24:54;;;;;;;20.10;13.90;;;;;;;20.79;35.30;99870.23;102670;1291;62068;-82
2024/02/11 00:27:24;;;;;;;18.10;13.40;;;;;;;20.78;35.11;99880.81;102633;1291;61789;-79
2024/02/11 00:29:51;;;;;;;18.80;13.90;;;;;;;20.79;35.26;99880.96;102734;1291;71312;-79
2024/02/11 00:32:19;;;;;;;18.20;13.80;;;;;;;20.79;35.20;99880.99;102789;1291;74608;-79
2024/02/11 00:34:44;;;;;;;19.90;13.90;;;;;;;20.79;35.27;99888.86;102864;1290;61360;-81
2024/02/11 00:37:11;;;;;;;18.40;13.90;;;;;;;20.78;35.27;99899.98;102739;1290;61385;-79
2024/02/11 00:39:40;;;;;;;17.90;13.40;;;;;;;20.78;35.24;99912.66;102719;1292;62276;-79
2024/02/11 00:42:06;;;;;;;19.20;14.20;;;;;;;20.78;35.17;99918.79;102662;1290;74451;-79
2024/02/11 00:44:31;;;;;;;19.70;14.40;;;;;;;20.78;35.14;99920.73;102819;1294;62541;-80
2024/02/11 00:47:00;;;;;;;19.30;13.40;;;;;;;20.78;35.20;99914.14;102701;1291;62591;-79
2024/02/11 00:49:27;;;;;;;15.90;13.00;;;;;;;20.77;35.29;99911.30;102680;1296;72485;-79
2024/02/11 00:51:54;;;;;;;19.70;14.30;;;;;;;20.76;35.22;99900.46;102694;1290;62446;-81
2024/02/11 00:54:20;;;;;;;18.90;13.70;;;;;;;20.77;35.27;99892.41;102871;1289;61307;-79
2024/02/11 00:56:46;;;;;;;20.10;13.40;;;;;;;20.77;35.21;99896.52;102619;1294;61322;-79
2024/02/11 00:59:16;;;;;;;21.60;14.20;;;;;;;20.77;35.17;99904.20;102792;1291;62563;-80
2024/02/11 01:01:42;;;;;;;17.00;13.00;;;;;;;20.77;35.31;99911.33;102700;1291;74224;-81
2024/02/11 01:04:07;;;;;;;18.20;13.70;;;;;;;20.76;35.31;99908.52;102668;1291;61378;-79
2024/02/11 01:06:33;;;;;;;18.10;13.10;;;;;;;20.77;35.25;99904.58;102823;1291;61865;-79
2024/02/11 01:09:00;;;;;;;19.80;13.60;;;;;;;20.76;35.11;99905.11;102880;1294;61409;-80
2024/02/11 01:11:26;;;;;;;19.40;12.90;;;;;;;20.76;35.17;99904.59;102873;1291;61435;-79
2024/02/11 01:13:51;;;;;;;18.20;12.90;;;;;;;20.76;35.22;99906.39;102731;1291;61706;-79
2024/02/11 01:16:17;;;;;;;18.20;13.60;;;;;;;20.76;35.23;99902.85;102811;1291;61308;-79
2024/02/11 01:18:45;;;;;;;18.70;13.20;;;;;;;20.75;35.15;99900.91;102780;1291;61494;-80
2024/02/11 01:21:12;;;;;;;16.70;12.80;;;;;;;20.75;35.32;99900.92;102806;1296;72350;-80
2024/02/11 01:23:37;;;;;;;18.50;12.70;;;;;;;20.75;35.29;99893.95;102865;1291;61387;-80
2024/02/11 01:26:03;;;;;;;18.10;12.70;;;;;;;20.75;35.22;99888.39;102685;1292;61481;-80
2024/02/11 01:28:30;;;;;;;17.50;13.00;;;;;;;20.75;35.12;99878.23;102907;1289;61387;-80
2024/02/11 01:30:57;;;;;;;16.50;12.50;;;;;;;20.75;35.20;99877.52;102751;1295;61395;-79
2024/02/11 01:33:23;;;;;;;17.30;12.40;;;;;;;20.75;35.23;99885.73;102685;1296;62498;-81
2024/02/11 01:35:50;;;;;;;19.30;12.60;;;;;;;20.74;35.17;99886.15;102691;1290;61440;-81
2024/02/11 01:38:15;;;;;;;18.40;12.40;;;;;;;20.74;35.24;99882.94;102791;1297;61417;-80
2024/02/11 01:40:41;;;;;;;16.50;11.70;;;;;;;20.75;35.31;99882.54;102913;1291;61312;-79
2024/02/11 01:43:07;;;;;;;17.50;12.50;;;;;;;20.74;35.11;99880.95;102697;1292;62292;-80
2024/02/11 01:45:35;;;;;;;19.60;12.20;;;;;;;20.74;35.36;99880.79;102671;1291;61869;-80
2024/02/11 01:48:06;;;;;;;17.00;11.80;;;;;;;20.74;35.14;99882.96;102712;1289;61395;-80
2024/02/11 01:50:33;;;;;;;14.80;12.00;;;;;;;20.74;35.25;99883.52;102903;1291;72601;-80
2024/02/11 01:52:59;;;;;;;14.90;11.50;;;;;;;20.74;35.13;99885.64;102727;1291;75654;-78
2024/02/11 01:55:24;;;;;;;18.30;12.60;;;;;;;20.74;35.14;99881.91;102699;1289;61884;-80
2024/02/11 01:57:53;;;;;;;15.60;11.50;;;;;;;20.74;35.26;99877.81;102731;1291;61330;-80
2024/02/11 02:00:19;;;;;;;17.10;12.40;;;;;;;20.74;35.26;99880.45;102718;1291;72443;-81
2024/02/11 02:02:45;;;;;;;16.20;11.20;;;;;;;20.74;35.33;99877.27;102732;1295;62344;-80
2024/02/11 02:05:11;;;;;;;16.70;11.70;;;;;;;20.73;35.27;99875.36;102667;1290;61421;-81
2024/02/11 02:07:38;;;;;;;15.90;11.70;;;;;;;20.73;35.28;99872.30;102739;1290;61907;-79
2024/02/11 02:10:04;;;;;;;15.30;11.20;;;;;;;20.73;35.22;99865.00;102698;1291;62440;-80
2024/02/11 02:12:31;;;;;;;15.80;11.20;;;;;;;20.73;35.29;99855.14;102845;1291;61942;-79
2024/02/11 02:14:57;;;;;;;16.10;11.50;;;;;;;20.73;35.31;99850.89;102711;1291;61531;-80
2024/02/11 02:17:23;;;;;;;14.20;11.20;;;;;;;20.73;35.30;99854.46;102666;1291;61488;-80
2024/02/11 02:19:51;;;;;;;15.00;11.30;;;;;;;20.73;35.26;99855.52;102731;1294;61328;-80
2024/02/11 02:22:19;;;;;;;16.70;11.20;;;;;;;20.73;35.13;99840.88;102805;1291;61319;-79
2024/02/11 02:24:44;;;;;;;16.10;10.50;;;;;;;20.73;35.09;99831.02;102784;1291;61401;-79
2024/02/11 02:27:13;;;;;;;16.30;10.80;;;;;;;20.72;35.18;99825.38;102792;1293;61302;-81
2024/02/11 02:29:39;;;;;;;13.60;10.70;;;;;;;20.72;35.33;99828.43;102794;1291;72639;-81
2024/02/11 02:32:05;;;;;;;15.10;10.70;;;;;;;20.72;35.30;99829.11;102739;1291;61894;-79
2024/02/11 02:34:30;;;;;;;17.10;10.90;;;;;;;20.72;35.32;99821.27;102679;1291;61397;-80
2024/02/11 02:36:56;;;;;;;16.00;11.10;;;;;;;20.72;35.22;99822.73;102787;1291;61309;-80
2024/02/11 02:39:23;;;;;;;15.50;10.50;;;;;;;20.72;35.30;99819.48;102679;1293;61459;-80
2024/02/11 02:41:49;;;;;;;14.30;10.60;;;;;;;20.72;35.36;99815.38;102750;1291;61366;-79
2024/02/11 02:44:15;;;;;;;13.10;10.30;;;;;;;20.71;35.35;99810.95;102789;1290;62380;-79
2024/02/11 02:46:41;;;;;;;15.50;10.30;;;;;;;20.72;35.27;99815.40;102686;1291;61503;-80
2024/02/11 02:49:07;;;;;;;15.10;10.70;;;;;;;20.71;35.15;99812.78;102638;1294;61478;-79
2024/02/11 02:51:33;;;;;;;13.60;10.00;;;;;;;20.71;35.32;99814.56;102790;1291;73261;-81
2024/02/11 02:54:03;;;;;;;14.20;9.90;;;;;;;20.71;35.33;99814.34;102742;1291;61571;-81
2024/02/11 02:56:28;;;;;;;;;;;;;;;20.71;35.29;99808.85;102819;1289;61354;-81
2024/02/11 02:58:54;;;;;;;12.70;9.50;;;;;;;20.68;35.25;99807.08;102776;1291;61513;-80
2024/02/11 03:01:20;;;;;;;13.70;9.70;;;;;;;20.70;35.29;99810.40;102724;1297;61410;-81
2024/02/11 03:03:49;;;;;;;12.30;9.80;;;;;;;20.70;35.28;99817.73;102727;1296;61943;-80
2024/02/11 03:06:16;;;;;;;15.50;9.90;;;;;;;20.69;35.28;99814.86;102727;1291;62583;-80
2024/02/11 03:08:41;;;;;;;12.70;9.80;;;;;;;20.69;35.17;99806.48;102777;1292;61403;-79
2024/02/11 03:11:07;;;;;;;13.90;10.00;;;;;;;20.69;35.15;99810.77;102780;1294;61467;-79
2024/02/11 03:13:33;;;;;;;14.80;10.20;;;;;;;20.69;35.29;99806.66;102730;1291;61333;-80
2024/02/11 03:15:58;;;;;;;13.00;9.60;;;;;;;20.70;35.32;99799.14;102792;1291;62559;-79
2024/02/11 03:18:25;;;;;;;14.70;9.70;;;;;;;20.70;35.22;99801.28;102720;1291;61429;-81
2024/02/11 03:20:50;;;;;;;13.40;8.60;;;;;;;20.70;35.32;99799.14;102794;1295;61900;-80
2024/02/11 03:23:16;;;;;;;12.70;9.80;;;;;;;20.69;35.37;99800.40;102691;1291;73734;-80
2024/02/11 03:25:42;;;;;;;15.10;9.70;;;;;;;20.70;35.46;99801.29;102704;1291;61593;-81
2024/02/11 03:28:07;;;;;;;13.00;9.70;;;;;;;20.69;35.42;99804.70;102748;1291;61418;-80
2024/02/11 03:30:35;;;;;;;11.70;9.20;;;;;;;20.69;35.42;99799.33;102670;1291;61388;-81
2024/02/11 03:33:02;;;;;;;13.00;9.20;;;;;;;20.70;35.43;99796.09;102789;1291;61711;-81
2024/02/11 03:35:28;;;;;;;11.80;9.80;;;;;;;20.69;35.36;99786.14;102787;1291;61759;-80
2024/02/11 03:37:54;;;;;;;13.80;8.90;;;;;;;20.69;35.37;99775.90;102618;1294;61332;-81
2024/02/11 03:40:20;;;;;;;13.90;9.20;;;;;;;20.69;35.30;99772.36;102718;1291;61731;-80
2024/02/11 03:42:46;;;;;;;14.30;9.10;;;;;;;20.69;35.30;99765.05;102671;1292;62656;-79
2024/02/11 03:45:12;;;;;;;14.40;9.30;;;;;;;20.69;35.34;99761.47;102640;1297;61362;-80
2024/02/11 03:47:39;;;;;;;12.90;9.20;;;;;;;20.68;35.25;99746.30;102595;1292;61324;-79
2024/02/11 03:50:10;;;;;;;14.20;9.80;;;;;;;20.69;35.30;99743.58;102826;1291;62647;-80
2024/02/11 03:52:37;;;;;;;13.50;9.30;;;;;;;20.69;35.40;99737.36;102692;1292;72529;-79
2024/02/11 03:55:05;;;;;;;12.40;9.10;;;;;;;20.68;35.34;99744.89;102772;1291;61381;-80
2024/02/11 03:57:31;;;;;;;12.50;8.90;;;;;;;20.68;35.47;99743.10;102721;1291;61337;-79
2024/02/11 03:59:57;;;;;;;12.40;8.80;;;;;;;20.68;35.47;99749.73;102718;1291;61468;-80
2024/02/11 04:02:23;;;;;;;12.40;9.00;;;;;;;20.68;35.33;99751.65;102709;1291;62257;-80
2024/02/11 04:04:51;;;;;;;12.90;9.30;;;;;;;20.68;35.27;99756.50;102720;1294;61481;-80
2024/02/11 04:07:20;;;;;;;13.10;8.90;;;;;;;20.68;35.39;99757.61;102691;1297;61961;-80
2024/02/11 04:09:46;;;;;;;13.10;9.90;;;;;;;20.68;35.33;99737.73;102801;1291;62228;-80
2024/02/11 04:12:13;;;;;;;12.10;9.00;;;;;;;20.68;35.49;99723.84;102137;1290;747283;-81
2024/02/11 04:14:41;;;;;;;14.10;9.10;;;;;;;20.67;35.36;99733.33;102728;1294;61344;-80
2024/02/11 04:17:13;;;;;;;12.80;8.50;;;;;;;20.68;35.21;99745.13;102836;1291;62443;-79
2024/02/11 04:19:39;;;;;;;11.80;8.50;;;;;;;20.68;35.32;99730.27;102820;1290;61977;-79
2024/02/11 04:22:07;;;;;;;13.40;8.70;;;;;;;20.68;35.38;99730.45;102630;1291;71912;-79
2024/02/11 04:24:33;;;;;;;12.50;8.60;;;;;;;20.68;35.36;99726.70;102775;1296;74658;-79
2024/02/11 04:26:59;;;;;;;15.40;9.30;;;;;;;20.67;35.44;99731.58;102796;1291;61320;-79
2024/02/11 04:29:25;;;;;;;12.30;8.40;;;;;;;20.67;35.25;99737.84;102854;1294;61325;-80
2024/02/11 04:31:54;;;;;;;11.50;8.60;;;;;;;20.67;35.31;99733.38;102744;1290;62492;-79
2024/02/11 04:34:21;;;;;;;12.00;8.10;;;;;;;20.67;35.46;99739.42;102648;1292;75460;-81
2024/02/11 04:36:48;;;;;;;13.80;9.00;;;;;;;20.67;35.27;99745.17;102815;1293;61315;-80
2024/02/11 04:39:15;;;;;;;11.00;8.00;;;;;;;20.67;35.42;99740.35;102742;1291;61416;-82
2024/02/11 04:41:41;;;;;;;12.00;8.70;;;;;;;20.67;35.42;99737.27;102690;1291;62229;-81
2024/02/11 04:44:06;;;;;;;13.20;8.90;;;;;;;20.67;35.49;99735.17;102702;1291;61296;-80
2024/02/11 04:46:33;;;;;;;11.40;8.50;;;;;;;20.67;35.45;99738.23;102792;1294;61608;-82
2024/02/11 04:48:59;;;;;;;11.30;8.40;;;;;;;20.66;35.38;99733.42;102751;1291;61331;-80
2024/02/11 04:51:30;;;;;;;11.20;8.10;;;;;;;20.67;35.42;99727.86;102676;1296;61437;-80
2024/02/11 04:53:59;;;;;;;13.70;8.30;;;;;;;20.66;35.24;99720.55;102538;1298;75803;-80
2024/02/11 04:56:27;;;;;;;12.70;8.10;;;;;;;20.66;35.40;99714.67;102705;1295;61377;-81
2024/02/11 04:58:54;;;;;;;11.60;8.30;;;;;;;20.66;35.37;99704.86;102722;1291;61395;-80
2024/02/11 05:01:23;;;;;;;11.20;8.40;;;;;;;20.65;35.48;99706.52;102678;1291;61420;-79
2024/02/11 05:03:49;;;;;;;10.90;8.10;;;;;;;20.66;35.34;99714.00;102960;1291;74503;-77
2024/02/11 05:06:18;;;;;;;12.70;7.90;;;;;;;20.65;35.39;99719.93;102726;1291;62356;-80
2024/02/11 05:08:45;;;;;;;13.10;8.30;;;;;;;20.65;35.39;99720.13;102659;1291;61317;-81
2024/02/11 05:11:11;;;;;;;11.20;8.00;;;;;;;20.64;35.54;99721.44;102714;1292;73533;-79
2024/02/11 05:13:38;;;;;;;10.90;7.90;;;;;;;20.65;35.51;99728.00;102668;1296;61363;-79
2024/02/11 05:16:05;;;;;;;11.30;7.80;;;;;;;20.65;35.61;99731.05;102905;1291;61794;-80
2024/02/11 05:18:33;;;;;;;11.00;8.10;;;;;;;20.65;35.58;99739.83;102727;1291;61730;-79
2024/02/11 05:21:02;;;;;;;12.30;8.20;;;;;;;20.65;35.52;99743.91;102595;1297;73311;-80
2024/02/11 05:23:29;;;;;;;10.30;7.60;;;;;;;20.64;35.45;99738.23;102603;1295;73395;-80
2024/02/11 05:25:57;;;;;;;10.30;7.30;;;;;;;20.64;35.41;99739.67;102629;1294;62396;-79
2024/02/11 05:28:24;;;;;;;11.90;7.10;;;;;;;20.65;35.54;99746.97;102620;1294;61340;-80
2024/02/11 05:30:52;;;;;;;11.40;7.60;;;;;;;20.64;35.43;99747.23;102605;1295;61385;-80
2024/02/11 05:33:18;;;;;;;10.30;7.50;;;;;;;20.64;35.36;99747.55;102681;1294;74347;-79
2024/02/11 05:35:44;;;;;;;12.40;8.00;;;;;;;20.64;35.35;99748.45;102291;1300;61576;-81
2024/02/11 05:38:10;;;;;;;11.70;8.30;;;;;;;20.64;35.23;99749.19;102554;1294;61473;-79
2024/02/11 05:40:37;;;;;;;9.80;7.80;;;;;;;20.64;35.41;99747.95;102501;1300;61539;-80
2024/02/11 05:43:06;;;;;;;10.30;7.40;;;;;;;20.63;35.55;99751.89;102622;1294;61885;-79
2024/02/11 05:45:32;;;;;;;12.30;7.60;;;;;;;20.64;35.57;99754.22;102618;1295;61564;-80
2024/02/11 05:47:58;;;;;;;10.60;7.40;;;;;;;20.63;35.53;99753.91;102633;1294;62441;-79
2024/02/11 05:50:26;;;;;;;12.70;8.10;;;;;;;20.63;35.47;99758.90;102310;1300;62064;-80
2024/02/11 05:52:52;;;;;;;10.80;7.50;;;;;;;20.63;35.41;99760.33;102597;1294;74401;-79
2024/02/11 05:55:18;;;;;;;12.40;7.50;;;;;;;20.63;35.46;99764.81;102922;1294;61619;-79
2024/02/11 05:57:46;;;;;;;11.60;7.30;;;;;;;20.63;35.54;99761.04;102948;1291;61399;-82
2024/02/11 06:00:18;;;;;;;10.00;7.50;;;;;;;20.63;35.47;99759.65;102691;1289;73342;-80
2024/02/11 06:02:48;;;;;;;10.60;7.50;;;;;;;20.62;35.50;99760.41;102790;1291;75424;-79
2024/02/11 06:05:14;;;;;;;10.40;6.90;;;;;;;20.62;35.62;99766.86;102761;1291;62101;-80
2024/02/11 06:07:46;;;;;;;10.30;7.30;;;;;;;20.62;35.49;99767.55;102643;1291;61476;-80
2024/02/11 06:10:12;;;;;;;11.80;7.00;;;;;;;20.62;35.49;99762.20;102658;1297;72740;-80
2024/02/11 06:12:44;;;;;;;9.40;6.80;;;;;;;20.62;35.53;99759.55;102547;1290;74567;-81
2024/02/11 06:15:11;;;;;;;11.20;7.30;;;;;;;20.62;35.51;99757.20;102663;1297;62315;-80
2024/02/11 06:17:37;;;;;;;10.70;7.40;;;;;;;20.61;35.58;99761.21;102741;1292;61369;-79
2024/02/11 06:20:19;;;;;;;10.00;7.20;;;;;;;20.62;35.54;99765.64;102630;1296;61276;-79
2024/02/11 06:22:46;;;;;;;11.50;7.40;;;;;;;20.61;35.50;99759.46;102656;1296;74325;-80
2024/02/11 06:25:32;;;;;;;10.10;6.50;;;;;;;20.61;35.65;99761.23;102718;1292;61602;-81
2024/02/11 06:27:58;;;;;;;9.40;6.90;;;;;;;20.61;35.58;99761.43;102686;1295;61416;-79
2024/02/11 06:30:24;;;;;;;10.80;6.70;;;;;;;20.60;35.48;99761.80;102853;1294;62135;-78
2024/02/11 06:32:50;;;;;;;10.60;7.20;;;;;;;20.60;35.47;99764.13;102818;1294;61305;-79
2024/02/11 06:35:16;;;;;;;10.00;7.20;;;;;;;20.60;35.54;99766.28;102930;1291;61309;-80
2024/02/11 06:37:43;;;;;;;11.70;7.40;;;;;;;20.60;35.61;99768.64;102703;1290;61482;-78
2024/02/11 06:40:17;;;;;;;9.10;6.90;;;;;;;20.60;35.63;99769.54;102710;1290;62460;-80
2024/02/11 06:42:43;;;;;;;10.80;7.20;;;;;;;20.59;35.45;99765.61;102857;1293;74403;-80
2024/02/11 06:45:19;;;;;;;9.80;6.50;;;;;;;20.59;35.70;99765.98;102643;1289;61401;-79
2024/02/11 06:47:45;;;;;;;11.00;7.30;;;;;;;20.59;35.61;99766.88;102748;1295;62708;-80
2024/02/11 06:50:14;;;;;;;8.50;6.60;;;;;;;20.59;35.71;99762.42;102667;1296;62281;-80
2024/02/11 06:52:41;;;;;;;8.10;6.70;;;;;;;20.59;35.54;99755.63;102683;1294;74597;-80
2024/02/11 06:55:10;;;;;;;8.80;6.80;;;;;;;20.58;35.53;99755.17;102868;1291;61296;-79
2024/02/11 06:57:39;;;;;;;9.80;6.80;;;;;;;20.59;35.55;99755.85;102850;1289;61427;-80
2024/02/11 07:00:09;;;;;;;8.70;6.60;;;;;;;20.59;35.70;99752.44;102696;1291;72338;-80
2024/02/11 07:02:36;;;;;;;9.20;6.60;;;;;;;20.59;35.68;99754.98;102678;1291;75461;-80
2024/02/11 07:05:03;;;;;;;9.40;6.50;;;;;;;20.58;35.68;99754.63;102836;1291;61315;-80
2024/02/11 07:07:29;;;;;;;10.20;6.90;;;;;;;20.58;35.64;99751.08;102698;1291;62577;-79
2024/02/11 07:09:54;;;;;;;9.70;6.40;;;;;;;20.59;35.55;99750.70;102835;1292;61805;-80
2024/02/11 07:12:20;;;;;;;9.90;6.40;;;;;;;20.58;35.66;99749.10;102658;1291;61269;-80
2024/02/11 07:14:46;;;;;;;9.10;6.60;;;;;;;20.58;35.74;99747.50;102752;1297;61583;-81
2024/02/11 07:17:14;;;;;;;9.80;6.50;;;;;;;20.58;35.61;99749.64;102593;1291;62171;-80
2024/02/11 07:19:41;;;;;;;9.10;6.50;;;;;;;20.58;35.50;99759.14;102966;1290;61720;-82
2024/02/11 07:22:08;;;;;;;9.70;6.70;;;;;;;20.58;35.79;99755.37;102762;1292;61781;-79
2024/02/11 07:24:41;;;;;;;11.50;7.00;;;;;;;20.58;35.72;99754.49;102795;1291;61404;-79
2024/02/11 07:27:13;;;;;;;11.30;7.00;;;;;;;20.58;35.84;99757.88;102910;1291;61380;-80
2024/02/11 07:29:43;;;;;;;10.10;6.60;;;;;;;20.58;35.73;99762.36;102816;1289;73538;-81
2024/02/11 07:32:10;;;;;;;10.30;7.30;;;;;;;20.59;35.96;99767.84;102820;1291;75386;-81
2024/02/11 07:34:39;;;;;;;10.10;7.20;;;;;;;20.58;35.91;99766.65;102648;1296;62236;-81
2024/02/11 07:37:05;;;;;;;9.70;6.30;;;;;;;20.58;35.97;99766.98;102722;1291;61399;-80
2024/02/11 07:39:31;;;;;;;8.70;6.40;;;;;;;20.58;35.89;99764.65;102765;1290;61434;-80
2024/02/11 07:41:58;;;;;;;8.90;6.40;;;;;;;20.58;35.98;99757.51;102788;1294;61743;-79
2024/02/11 07:44:24;;;;;;;10.50;6.80;;;;;;;20.58;35.99;99756.80;102679;1289;61864;-79
2024/02/11 07:46:53;;;;;;;10.80;6.40;;;;;;;20.58;35.99;99758.42;102703;1296;61314;-80
2024/02/11 07:49:20;;;;;;;9.20;6.30;;;;;;;20.58;35.87;99758.58;102869;1294;72407;-80
2024/02/11 07:51:50;;;;;;;10.20;6.10;;;;;;;20.59;36.00;99759.27;102682;1292;75328;-80
2024/02/11 07:54:23;;;;;;;10.00;6.40;;;;;;;20.58;36.00;99761.64;102663;1291;62369;-80
2024/02/11 07:56:54;;;;;;;9.90;6.10;;;;;;;20.58;36.14;99766.27;102873;1291;62269;-80
2024/02/11 07:59:21;;;;;;;10.00;6.20;;;;;;;20.58;36.04;99770.35;102832;1289;72890;-81
2024/02/11 08:01:47;;;;;;;8.80;5.90;;;;;;;20.58;36.02;99766.27;102837;1291;61279;-79
2024/02/11 08:04:16;;;;;;;9.00;6.30;;;;;;;20.59;36.16;99767.48;102716;1297;61436;-81
2024/02/11 08:06:43;;;;;;;10.10;6.30;;;;;;;20.59;36.05;99769.23;102882;1289;61387;-81
2024/02/11 08:09:09;;;;;;;9.60;6.00;;;;;;;20.59;36.09;99770.70;102654;1289;71333;-80
2024/02/11 08:11:36;;;;;;;9.20;6.30;;;;;;;20.59;36.15;99776.02;102816;1293;74274;-81
2024/02/11 08:14:03;;;;;;;10.60;6.40;;;;;;;20.59;36.14;99780.48;102950;1289;61421;-82
2024/02/11 08:16:30;;;;;;;10.60;6.70;;;;;;;20.60;36.25;99777.23;102826;1291;61418;-79
2024/02/11 08:18:56;;;;;;;11.60;6.40;;;;;;;20.60;36.23;99773.13;102869;1292;61357;-80
2024/02/11 08:21:22;;;;;;;8.90;6.10;;;;;;;20.59;36.26;99773.30;102788;1293;61317;-79
2024/02/11 08:23:48;;;;;;;9.50;6.10;;;;;;;20.60;36.43;99777.56;102793;1290;62186;-80
2024/02/11 08:26:13;;;;;;;8.30;6.10;;;;;;;20.61;36.46;99773.96;102698;1289;61321;-80
2024/02/11 08:28:39;;;;;;;9.10;5.90;;;;;;;20.60;36.46;99774.67;102699;1295;62190;-81
2024/02/11 08:31:05;;;;;;;8.30;5.80;;;;;;;20.60;36.58;99770.22;102582;1294;72387;-81
2024/02/11 08:33:32;;;;;;;9.80;5.90;;;;;;;20.60;36.58;99773.59;102675;1296;61349;-80
2024/02/11 08:35:57;;;;;;;8.20;5.80;;;;;;;20.60;36.58;99770.58;102909;1294;61370;-79
2024/02/11 08:38:23;;;;;;;9.30;6.30;;;;;;;20.60;36.49;99768.42;102676;1291;61519;-81
2024/02/11 08:40:50;;;;;;;9.40;6.30;;;;;;;20.61;36.72;99768.73;102961;1291;61399;-80
2024/02/11 08:43:15;;;;;;;8.00;5.90;;;;;;;20.60;36.75;99769.30;102611;1297;61470;-79
2024/02/11 08:45:41;;;;;;;10.20;6.30;;;;;;;20.61;36.70;99765.34;102946;1291;62436;-80
2024/02/11 08:48:07;;;;;;;9.00;6.00;;;;;;;20.61;36.77;99754.63;102685;1295;61394;-78
2024/02/11 08:50:33;;;;;;;9.00;6.00;;;;;;;20.61;36.72;99749.80;102604;1290;61434;-80
2024/02/11 08:52:59;;;;;;;9.40;6.30;;;;;;;20.62;36.90;99752.77;102659;1292;72606;-80
2024/02/11 08:55:24;;;;;;;9.60;6.10;;;;;;;20.62;36.79;99753.64;102900;1294;61343;-79
2024/02/11 08:57:51;;;;;;;8.40;5.80;;;;;;;20.62;36.77;99756.16;102678;1296;61385;-80
2024/02/11 09:00:18;;;;;;;9.10;5.80;;;;;;;20.63;36.93;99763.05;102705;1295;62355;-79
2024/02/11 09:02:44;;;;;;;8.60;5.50;;;;;;;20.62;36.89;99760.79;102987;1291;61360;-80
2024/02/11 09:05:11;;;;;;;8.90;5.70;;;;;;;20.63;37.04;99761.23;102700;1291;61403;-80
2024/02/11 09:07:42;;;;;;;8.90;6.00;;;;;;;20.63;37.21;99761.27;102653;1291;62223;-79
2024/02/11 09:10:08;;;;;;;9.10;5.70;;;;;;;20.63;37.03;99764.10;103018;1290;61308;-80
2024/02/11 09:12:34;;;;;;;7.90;5.60;;;;;;;20.63;37.24;99764.27;102871;1294;73170;-79
2024/02/11 09:15:00;;;;;;;10.00;6.30;;;;;;;20.64;37.12;99767.82;102881;1289;61403;-80
2024/02/11 09:17:27;;;;;;;11.30;6.80;;;;;;;20.64;37.17;99766.02;102961;1294;61403;-79
2024/02/11 09:19:53;;;;;;;11.00;6.10;;;;;;;20.64;37.15;99766.32;102707;1291;61532;-82
2024/02/11 09:22:19;;;;;;;8.50;5.10;;;;;;;20.64;37.21;99762.76;102876;1292;61313;-80
2024/02/11 09:24:45;;;;;;;8.70;5.80;;;;;;;20.65;37.06;99760.02;102726;1290;62689;-81
2024/02/11 09:27:12;;;;;;;8.20;5.70;;;;;;;20.64;37.13;99766.50;102625;1294;62227;-82
2024/02/11 09:29:39;;;;;;;8.20;5.60;;;;;;;20.64;37.12;99767.39;102636;1290;61424;-80
2024/02/11 09:32:06;;;;;;;8.40;5.70;;;;;;;20.64;37.19;99762.76;102671;1297;61395;-80
2024/02/11 09:34:32;;;;;;;9.70;6.30;;;;;;;20.65;37.11;99762.35;102707;1295;62491;-80
2024/02/11 09:36:57;;;;;;;8.10;5.30;;;;;;;20.64;37.21;99765.93;102909;1289;61438;-80
2024/02/11 09:39:23;;;;;;;8.50;5.70;;;;;;;20.65;37.13;99758.59;102677;1289;61380;-79
2024/02/11 09:41:50;;;;;;;7.20;5.00;;;;;;;20.65;37.15;99757.80;102951;1292;62586;-80
2024/02/11 09:44:18;;;;;;;8.40;5.40;;;;;;;20.65;36.98;99753.89;102942;1294;61452;-82
2024/02/11 09:46:44;;;;;;;8.50;5.20;;;;;;;20.65;36.86;99751.41;102700;1296;61672;-80
2024/02/11 09:49:11;;;;;;;8.30;5.40;;;;;;;20.65;36.94;99748.40;102739;1292;61459;-79
2024/02/11 09:51:37;;;;;;;8.10;5.00;;;;;;;20.65;36.87;99743.55;102878;1294;61391;-79
2024/02/11 09:54:04;;;;;;;7.50;5.10;;;;;;;20.65;36.89;99742.14;102730;1291;61465;-80
2024/02/11 09:56:30;;;;;;;7.30;5.00;;;;;;;20.65;36.80;99742.33;102972;1294;62048;-80
2024/02/11 09:58:56;;;;;;;7.60;4.90;;;;;;;20.65;36.75;99738.02;102656;1295;61330;-80
2024/02/11 10:01:21;;;;;;;8.80;5.30;;;;;;;20.65;36.59;99740.48;102954;1295;61478;-80
2024/02/11 10:03:53;;;;;;;9.20;5.40;;;;;;;20.65;36.72;99738.36;102764;1294;61752;-80
2024/02/11 10:06:20;;;;;;;9.40;5.70;;;;;;;20.65;36.59;99732.82;102954;1292;74752;-79
2024/02/11 10:08:46;;;;;;;9.40;5.00;;;;;;;20.65;36.52;99725.64;102791;1294;63172;-80
2024/02/11 10:11:15;;;;;;;9.40;4.70;;;;;;;20.65;36.38;99721.37;102636;1297;61386;-80
2024/02/11 10:13:41;;;;;;;8.00;5.10;;;;;;;20.65;36.34;99716.55;102944;1290;71574;-78
2024/02/11 10:16:07;;;;;;;8.10;5.00;;;;;;;20.65;36.54;99711.15;102691;1295;61451;-80
2024/02/11 10:18:33;;;;;;;9.00;5.20;;;;;;;20.65;36.41;99707.93;102655;1295;61417;-79
2024/02/11 10:20:59;;;;;;;9.00;5.40;;;;;;;20.65;36.47;99702.77;102723;1294;62356;-79
2024/02/11 10:23:25;;;;;;;6.80;4.80;;;;;;;20.65;36.27;99699.75;102736;1304;61416;-82
2024/02/11 10:25:51;;;;;;;8.90;5.20;;;;;;;20.65;36.21;99694.36;102619;1295;61337;-80
2024/02/11 10:28:17;;;;;;;8.70;5.00;;;;;;;20.65;36.33;99692.05;102859;1294;61383;-83
2024/02/11 10:30:43;;;;;;;8.40;5.10;;;;;;;20.65;36.35;99691.33;102903;1294;61279;-81
2024/02/11 10:33:10;;;;;;;8.00;4.90;;;;;;;20.65;36.31;99687.38;102862;1289;61414;-80
2024/02/11 10:35:36;;;;;;;7.30;4.70;;;;;;;20.66;36.23;99676.29;102686;1297;61403;-80
2024/02/11 10:38:06;;;;;;;8.90;5.20;;;;;;;20.65;36.21;99675.22;102731;1290;61910;-80
2024/02/11 10:40:36;;;;;;;7.60;4.80;;;;;;;20.65;36.26;99675.10;102773;1294;61806;-82
2024/02/11 10:43:03;;;;;;;9.50;5.40;;;;;;;20.65;36.32;99672.39;102893;1289;62660;-80
2024/02/11 10:45:29;;;;;;;8.50;4.60;;;;;;;20.65;36.22;99663.84;102714;1294;73212;-80
2024/02/11 10:47:54;;;;;;;7.90;4.50;;;;;;;20.65;36.14;99662.59;102840;1293;61391;-79
2024/02/11 10:50:21;;;;;;;8.10;4.90;;;;;;;20.65;36.11;99659.54;102814;1290;61435;-79
2024/02/11 10:52:48;;;;;;;8.40;5.00;;;;;;;20.65;36.26;99654.55;102660;1295;61471;-81
2024/02/11 10:55:14;;;;;;;8.90;5.10;;;;;;;20.65;36.21;99653.65;102766;1294;61790;-80
2024/02/11 10:57:52;;;;;;;8.40;5.10;;;;;;;20.65;36.20;99652.57;102602;1298;61453;-80
2024/02/11 11:00:24;;;;;;;7.20;4.60;;;;;;;20.64;36.32;99655.64;102850;1294;61437;-80
2024/02/11 11:02:52;;;;;;;8.10;4.70;;;;;;;20.64;36.17;99653.70;102778;1289;61411;-80
2024/02/11 11:05:20;;;;;;;7.80;4.40;;;;;;;20.64;36.18;99650.28;102689;1304;74595;-79
2024/02/11 11:07:49;;;;;;;7.30;4.60;;;;;;;20.64;36.09;99649.58;102619;1294;74251;-81
2024/02/11 11:10:15;;;;;;;8.70;4.60;;;;;;;20.64;36.22;99649.06;102732;1295;61284;-81
2024/02/11 11:12:53;;;;;;;7.20;4.00;;;;;;;20.64;36.18;99652.80;102830;1294;62692;-81
2024/02/11 11:15:27;;;;;;;7.50;4.60;;;;;;;20.64;36.25;99654.61;102699;1295;73515;-80